Time;durP1;ratioP1;P1;durP2;ratioP2;P2;SDS_P1;SDS_P2;PMS_P1;PMS_P2;Temp;Humidity;BMP_temperature;BMP_pressure;BME280_temperature;BME280_humidity;BME280_pressure;Samples;Min_cycle;Max_cycle;Signal;HPM_P1;HPM_P2
2022/03/02 00:01:39;;;;;;;40.42;26.77;;;5.00;99.90;;;;;;5073460;28;20048;-65
2022/03/02 00:04:05;;;;;;;40.35;26.95;;;5.00;99.90;;;;;;5073566;28;20032;-65
2022/03/02 00:06:31;;;;;;;42.40;26.42;;;5.00;99.90;;;;;;5073326;28;20059;-65
2022/03/02 00:08:57;;;;;;;41.92;27.23;;;5.10;99.90;;;;;;5056852;28;20066;-65
2022/03/02 00:11:24;;;;;;;36.47;26.42;;;5.00;99.90;;;;;;5073558;28;20040;-65
2022/03/02 00:13:50;;;;;;;43.35;28.95;;;5.10;99.90;;;;;;5073190;28;20507;-65
2022/03/02 00:16:18;;;;;;;44.70;28.20;;;5.10;99.90;;;;;;5073462;28;20036;-65
2022/03/02 00:18:44;;;;;;;40.42;26.23;;;5.10;99.90;;;;;;5073351;28;20181;-65
2022/03/02 00:21:10;;;;;;;42.95;27.52;;;5.10;99.90;;;;;;5056550;28;20497;-65
2022/03/02 00:23:36;;;;;;;42.13;28.27;;;5.10;99.90;;;;;;5070494;28;20060;-65
2022/03/02 00:26:03;;;;;;;40.15;26.27;;;5.10;99.90;;;;;;5056850;28;20079;-65
2022/03/02 00:28:28;;;;;;;39.60;26.45;;;5.10;99.90;;;;;;5073349;28;20116;-65
2022/03/02 00:30:54;;;;;;;36.83;25.95;;;5.10;99.90;;;;;;5057550;28;20489;-65
2022/03/02 00:33:20;;;;;;;38.85;26.50;;;5.10;99.90;;;;;;5060214;28;20412;-65
2022/03/02 00:35:46;;;;;;;41.22;27.77;;;5.00;99.90;;;;;;5076549;28;20085;-65
2022/03/02 00:38:12;;;;;;;42.97;25.92;;;5.10;99.90;;;;;;5076905;28;20382;-65
2022/03/02 00:40:39;;;;;;;41.85;27.38;;;5.10;99.90;;;;;;5059818;28;20063;-65
2022/03/02 00:43:06;;;;;;;42.45;26.90;;;5.00;99.90;;;;;;5076443;28;20040;-65
2022/03/02 00:45:32;;;;;;;44.85;27.98;;;5.00;99.90;;;;;;5076295;28;20040;-65
2022/03/02 00:48:00;;;;;;;37.88;25.25;;;5.10;99.90;;;;;;5076521;28;20036;-65
2022/03/02 00:50:26;;;;;;;43.55;27.90;;;5.10;99.90;;;;;;5076656;28;20028;-65
2022/03/02 00:52:52;;;;;;;38.70;26.70;;;5.10;99.90;;;;;;5060003;28;20451;-65
2022/03/02 00:55:18;;;;;;;40.72;27.00;;;5.10;99.90;;;;;;5073902;28;20039;-65
2022/03/02 00:57:44;;;;;;;43.60;27.27;;;5.00;99.90;;;;;;5076177;28;20040;-65
2022/03/02 01:00:12;;;;;;;44.60;28.10;;;5.00;99.90;;;;;;5076081;28;20044;-65
2022/03/02 01:02:38;;;;;;;36.30;25.33;;;5.00;99.90;;;;;;5076241;28;20127;-65
2022/03/02 01:05:07;;;;;;;41.30;27.20;;;5.10;99.90;;;;;;5059444;28;20492;-65
2022/03/02 01:07:34;;;;;;;41.35;27.83;;;5.10;99.90;;;;;;5059711;28;20055;-66
2022/03/02 01:10:00;;;;;;;41.83;27.40;;;5.10;99.90;;;;;;5076001;28;20488;-65
2022/03/02 01:12:27;;;;;;;41.15;24.67;;;5.10;99.90;;;;;;5076251;28;20078;-65
2022/03/02 01:14:52;;;;;;;42.42;27.83;;;5.10;99.90;;;;;;5075896;28;20040;-65
2022/03/02 01:17:19;;;;;;;38.70;26.20;;;5.00;99.90;;;;;;5076033;28;20043;-65
2022/03/02 01:19:45;;;;;;;43.85;27.25;;;5.00;99.90;;;;;;5075743;28;20133;-65
2022/03/02 01:22:11;;;;;;;45.08;29.17;;;5.00;99.90;;;;;;5076137;28;20036;-65
2022/03/02 01:24:36;;;;;;;40.17;26.88;;;5.00;99.90;;;;;;5056374;28;20068;-65
2022/03/02 01:27:03;;;;;;;40.55;26.95;;;5.00;99.90;;;;;;5059061;28;20044;-65
2022/03/02 01:29:30;;;;;;;39.55;26.17;;;5.00;99.90;;;;;;5058959;28;20044;-65
2022/03/02 01:31:59;;;;;;;37.53;26.60;;;5.00;99.90;;;;;;5075665;28;20054;-65
2022/03/02 01:34:24;;;;;;;42.08;25.52;;;4.90;99.90;;;;;;5075816;28;20032;-65
2022/03/02 01:36:50;;;;;;;44.10;28.40;;;4.90;99.90;;;;;;5092459;28;20036;-65
2022/03/02 01:39:16;;;;;;;41.17;27.55;;;4.90;99.90;;;;;;5092411;28;20044;-65
2022/03/02 01:41:42;;;;;;;36.92;26.08;;;4.90;99.90;;;;;;5075591;28;20097;-65
2022/03/02 01:44:08;;;;;;;41.20;27.65;;;4.90;99.90;;;;;;5092610;28;20052;-65
2022/03/02 01:46:34;;;;;;;47.42;28.30;;;4.80;99.90;;;;;;5075287;28;20572;-65
2022/03/02 01:49:00;;;;;;;42.55;27.88;;;4.80;99.90;;;;;;5075422;28;20040;-65
2022/03/02 01:51:26;;;;;;;42.97;26.88;;;4.80;99.90;;;;;;5092125;28;20072;-65
2022/03/02 01:53:52;;;;;;;42.72;28.02;;;4.80;99.90;;;;;;5072731;28;20357;-65
2022/03/02 01:56:18;;;;;;;39.80;26.48;;;4.80;99.90;;;;;;5075038;28;20048;-65
2022/03/02 01:58:45;;;;;;;38.17;26.73;;;4.70;99.90;;;;;;5091904;28;20051;-65
2022/03/02 02:01:12;;;;;;;39.83;27.58;;;4.70;99.90;;;;;;5058429;28;20050;-65
2022/03/02 02:03:38;;;;;;;42.42;27.83;;;4.70;99.90;;;;;;5058374;28;20048;-65
2022/03/02 02:06:05;;;;;;;42.13;27.45;;;4.70;99.90;;;;;;5074880;28;20484;-65
2022/03/02 02:08:31;;;;;;;41.35;27.17;;;4.70;99.90;;;;;;5074905;28;20094;-65
2022/03/02 02:10:59;;;;;;;40.00;27.88;;;4.60;99.90;;;;;;5091878;28;20093;-65
2022/03/02 02:13:27;;;;;;;44.53;28.50;;;4.60;99.90;;;;;;5074917;28;20153;-65
2022/03/02 02:15:56;;;;;;;41.35;26.98;;;4.60;99.90;;;;;;5092060;28;20431;-65
2022/03/02 02:18:22;;;;;;;44.58;28.77;;;4.60;99.90;;;;;;5091814;28;20051;-65
2022/03/02 02:20:47;;;;;;;45.58;30.08;;;4.60;99.90;;;;;;5091826;28;20032;-65
2022/03/02 02:23:13;;;;;;;43.80;27.85;;;4.50;99.90;;;;;;5091339;28;20048;-65
2022/03/02 02:25:40;;;;;;;45.55;28.58;;;4.50;99.90;;;;;;5089263;28;20153;-65
2022/03/02 02:28:12;;;;;;;43.72;28.58;;;4.50;99.90;;;;;;5091524;28;20046;-65
2022/03/02 02:30:39;;;;;;;44.15;29.65;;;4.50;99.90;;;;;;5091642;28;20102;-65
2022/03/02 02:33:05;;;;;;;42.70;28.20;;;4.50;99.90;;;;;;5074534;28;20036;-65
2022/03/02 02:35:31;;;;;;;45.25;28.02;;;4.50;99.90;;;;;;5093510;28;20051;-65
2022/03/02 02:37:58;;;;;;;48.00;28.58;;;4.50;99.90;;;;;;5094597;28;20044;-65
2022/03/02 02:40:26;;;;;;;42.78;28.50;;;4.50;99.90;;;;;;5077638;28;20035;-65
2022/03/02 02:42:52;;;;;;;43.60;28.38;;;4.50;99.90;;;;;;5094872;28;20498;-65
2022/03/02 02:45:23;;;;;;;47.15;29.40;;;4.50;99.90;;;;;;5077862;28;20282;-65
2022/03/02 02:47:50;;;;;;;46.40;28.20;;;4.50;99.90;;;;;;5094574;28;20065;-65
2022/03/02 02:50:19;;;;;;;44.40;27.38;;;4.60;99.90;;;;;;5094439;28;20082;-65
2022/03/02 02:52:45;;;;;;;43.47;28.40;;;4.60;99.90;;;;;;5077491;28;20044;-65
2022/03/02 02:55:13;;;;;;;43.47;26.73;;;4.60;99.90;;;;;;5091681;28;20075;-65
2022/03/02 02:57:40;;;;;;;42.92;28.88;;;4.60;99.90;;;;;;5094616;28;20449;-65
2022/03/02 03:00:08;;;;;;;49.30;27.77;;;4.60;99.90;;;;;;5094216;28;20040;-65
2022/03/02 03:02:34;;;;;;;44.80;27.88;;;4.60;99.90;;;;;;5094297;28;20042;-65
2022/03/02 03:05:00;;;;;;;47.20;28.42;;;4.60;99.90;;;;;;5077389;28;20036;-65
2022/03/02 03:07:26;;;;;;;43.22;27.95;;;4.70;99.90;;;;;;5094096;28;20104;-65
2022/03/02 03:09:52;;;;;;;49.38;28.70;;;4.70;99.90;;;;;;5094216;28;20050;-65
2022/03/02 03:12:18;;;;;;;44.20;26.27;;;4.70;99.90;;;;;;5094073;28;20111;-65
2022/03/02 03:14:43;;;;;;;46.78;28.52;;;4.70;99.90;;;;;;5094194;28;20122;-65
2022/03/02 03:17:09;;;;;;;44.13;27.10;;;4.70;99.90;;;;;;5077193;28;20193;-66
2022/03/02 03:19:35;;;;;;;44.45;27.48;;;4.70;99.90;;;;;;5077221;28;20055;-66
2022/03/02 03:22:07;;;;;;;42.95;27.98;;;4.70;99.90;;;;;;5077350;28;20036;-65
2022/03/02 03:24:34;;;;;;;45.50;28.05;;;4.70;99.90;;;;;;5091689;28;20052;-65
2022/03/02 03:27:00;;;;;;;48.40;29.27;;;4.70;99.90;;;;;;5077429;28;20431;-65
2022/03/02 03:29:26;;;;;;;47.22;28.70;;;4.70;99.90;;;;;;5094069;28;20052;-65
2022/03/02 03:31:52;;;;;;;48.42;27.55;;;4.70;99.90;;;;;;5077026;28;20044;-65
2022/03/02 03:34:18;;;;;;;40.78;26.23;;;4.80;99.90;;;;;;5077086;28;20104;-65
2022/03/02 03:36:44;;;;;;;46.50;27.80;;;4.80;99.90;;;;;;5093840;28;20050;-65
2022/03/02 03:39:10;;;;;;;44.92;27.77;;;4.80;99.90;;;;;;5077002;28;20117;-65
2022/03/02 03:41:36;;;;;;;44.00;27.85;;;4.80;99.90;;;;;;5094104;28;20039;-65
2022/03/02 03:44:02;;;;;;;47.15;29.15;;;4.80;99.90;;;;;;5093827;28;20035;-65
2022/03/02 03:46:28;;;;;;;44.53;27.58;;;4.70;99.90;;;;;;5093712;28;20040;-65
2022/03/02 03:48:54;;;;;;;45.42;29.52;;;4.70;99.90;;;;;;5093823;28;20093;-65
2022/03/02 03:51:20;;;;;;;51.35;30.20;;;4.70;99.90;;;;;;5093943;28;20044;-65
2022/03/02 03:53:46;;;;;;;45.85;29.80;;;4.70;99.90;;;;;;5091701;28;20555;-65
2022/03/02 03:56:12;;;;;;;47.20;29.30;;;4.70;99.90;;;;;;5093940;28;20086;-65
2022/03/02 03:58:37;;;;;;;49.33;27.88;;;4.70;99.90;;;;;;5076887;28;20048;-65
2022/03/02 04:01:03;;;;;;;46.20;29.17;;;4.70;99.90;;;;;;5093855;28;20050;-65
2022/03/02 04:03:29;;;;;;;48.45;29.50;;;4.60;99.90;;;;;;5093629;28;20048;-65
2022/03/02 04:05:55;;;;;;;46.47;28.40;;;4.60;99.90;;;;;;5094903;28;20036;-65
2022/03/02 04:08:22;;;;;;;45.65;28.52;;;4.60;99.90;;;;;;5080892;28;20085;-65
2022/03/02 04:10:49;;;;;;;48.20;29.92;;;4.60;99.90;;;;;;5097990;28;20122;-65
2022/03/02 04:13:16;;;;;;;48.42;29.10;;;4.60;99.90;;;;;;5097775;28;20376;-65
2022/03/02 04:15:41;;;;;;;46.22;29.10;;;4.50;99.90;;;;;;5080865;28;20388;-65
2022/03/02 04:18:08;;;;;;;49.30;29.10;;;4.50;99.90;;;;;;5097224;28;20043;-65
2022/03/02 04:20:34;;;;;;;48.42;30.45;;;4.50;99.90;;;;;;5097537;28;20054;-65
2022/03/02 04:23:00;;;;;;;48.60;29.95;;;4.50;99.90;;;;;;5093783;28;20043;-65
2022/03/02 04:25:26;;;;;;;50.22;29.27;;;4.50;99.90;;;;;;5054534;28;20052;-65
2022/03/02 04:27:52;;;;;;;49.47;30.13;;;4.40;99.90;;;;;;5056993;28;20098;-65
2022/03/02 04:30:18;;;;;;;51.97;30.23;;;4.40;99.90;;;;;;5056751;28;20056;-65
2022/03/02 04:32:44;;;;;;;49.65;30.88;;;4.30;99.90;;;;;;5056706;28;20048;-65
2022/03/02 04:35:12;;;;;;;51.42;29.58;;;4.30;99.90;;;;;;5056768;28;20097;-65
2022/03/02 04:37:38;;;;;;;48.92;29.05;;;4.20;99.90;;;;;;5040012;28;20048;-65
2022/03/02 04:40:06;;;;;;;52.22;30.63;;;4.10;99.90;;;;;;5039937;28;20052;-65
2022/03/02 04:42:32;;;;;;;49.05;30.40;;;4.10;99.90;;;;;;5056502;28;20055;-65
2022/03/02 04:44:58;;;;;;;49.72;30.35;;;4.00;99.90;;;;;;5056522;28;20493;-65
2022/03/02 04:47:24;;;;;;;51.63;30.55;;;3.90;99.90;;;;;;5056270;28;20040;-65
2022/03/02 04:49:51;;;;;;;53.13;31.08;;;3.80;99.90;;;;;;5039894;28;20048;-65
2022/03/02 04:52:18;;;;;;;46.92;30.45;;;3.70;99.90;;;;;;5039747;28;20098;-65
2022/03/02 04:57:28;;;;;;;48.70;30.75;;;3.50;99.90;;;;;;5056108;28;20044;-65
2022/03/02 04:59:54;;;;;;;48.95;31.20;;;3.40;99.90;;;;;;5056235;28;20042;-65
2022/03/02 05:02:20;;;;;;;53.08;31.52;;;3.30;99.90;;;;;;5056351;28;20059;-65
2022/03/02 05:04:46;;;;;;;52.28;33.00;;;3.10;99.90;;;;;;5056113;28;20507;-65
2022/03/02 05:07:12;;;;;;;50.55;30.75;;;3.00;99.90;;;;;;5056234;28;20128;-65
2022/03/02 05:09:38;;;;;;;49.58;30.25;;;2.90;99.90;;;;;;5056218;28;20531;-65
2022/03/02 05:12:04;;;;;;;50.50;30.45;;;2.80;99.90;;;;;;5039318;28;20044;-65
2022/03/02 05:14:31;;;;;;;53.17;31.48;;;2.70;99.90;;;;;;5039260;28;20087;-65
2022/03/02 05:16:57;;;;;;;51.28;30.02;;;2.60;99.90;;;;;;5055716;28;20463;-65
2022/03/02 05:19:22;;;;;;;54.13;30.23;;;2.60;99.90;;;;;;5055863;28;20048;-65
2022/03/02 05:21:48;;;;;;;51.83;30.15;;;2.50;99.90;;;;;;5056001;28;20043;-65
2022/03/02 05:24:15;;;;;;;48.58;29.98;;;2.40;99.90;;;;;;5069882;28;20048;-65
2022/03/02 05:26:41;;;;;;;56.67;31.48;;;2.30;99.90;;;;;;5079473;28;20039;-65
2022/03/02 05:29:07;;;;;;;49.20;29.98;;;2.30;99.90;;;;;;5079442;28;20466;-65
2022/03/02 05:31:33;;;;;;;54.00;31.40;;;2.10;99.90;;;;;;5096277;28;20047;-65
2022/03/02 05:33:59;;;;;;;55.78;31.00;;;2.10;99.90;;;;;;5078943;28;20536;-65
2022/03/02 05:36:26;;;;;;;49.55;29.10;;;2.00;99.90;;;;;;5095950;28;20040;-65
2022/03/02 05:38:52;;;;;;;56.55;31.00;;;1.90;99.90;;;;;;5078867;28;20077;-65
2022/03/02 05:41:18;;;;;;;52.90;30.00;;;1.90;99.90;;;;;;5096038;28;20051;-65
2022/03/02 05:43:45;;;;;;;56.67;31.52;;;1.80;99.90;;;;;;5078689;28;20497;-65
2022/03/02 05:46:10;;;;;;;54.38;29.83;;;1.80;99.90;;;;;;5078991;28;20035;-65
2022/03/02 05:48:37;;;;;;;57.33;32.95;;;1.80;99.90;;;;;;5095845;28;20043;-65
2022/03/02 05:51:03;;;;;;;52.92;32.15;;;1.70;99.90;;;;;;5095867;28;20043;-65
2022/03/02 05:53:29;;;;;;;55.17;31.95;;;1.70;99.90;;;;;;5095220;28;20122;-65
2022/03/02 05:55:54;;;;;;;62.53;34.28;;;1.60;99.90;;;;;;5093582;28;20180;-65
2022/03/02 05:58:20;;;;;;;58.92;33.00;;;1.60;99.90;;;;;;5092218;28;20040;-65
2022/03/02 06:00:46;;;;;;;58.20;33.95;;;1.60;99.90;;;;;;5095415;28;20293;-65
2022/03/02 06:03:13;;;;;;;57.85;32.47;;;1.50;99.90;;;;;;5078372;28;20115;-65
2022/03/02 06:05:40;;;;;;;56.10;32.30;;;1.50;99.90;;;;;;5095529;28;20104;-65
2022/03/02 06:08:07;;;;;;;64.88;34.47;;;1.50;99.90;;;;;;5095472;28;20039;-65
2022/03/02 06:10:34;;;;;;;65.22;36.20;;;1.50;99.90;;;;;;5078694;28;20079;-65
2022/03/02 06:13:00;;;;;;;58.40;33.03;;;1.50;99.90;;;;;;5095048;28;20075;-65
2022/03/02 06:15:26;;;;;;;63.85;36.20;;;1.50;99.90;;;;;;5095222;28;20047;-65
2022/03/02 06:17:53;;;;;;;62.28;33.95;;;1.50;99.90;;;;;;5095374;28;20036;-65
2022/03/02 06:20:19;;;;;;;65.38;35.38;;;1.50;99.90;;;;;;5095082;28;20046;-65
2022/03/02 06:22:46;;;;;;;59.47;33.55;;;1.50;99.90;;;;;;5094881;28;20047;-65
2022/03/02 06:25:12;;;;;;;54.45;31.23;;;1.50;99.90;;;;;;5089243;28;20396;-65
2022/03/02 06:27:38;;;;;;;63.10;34.90;;;1.40;99.90;;;;;;5074674;28;20134;-65
2022/03/02 06:30:06;;;;;;;58.65;31.88;;;1.30;99.90;;;;;;5073950;28;20480;-65
2022/03/02 06:32:34;;;;;;;62.67;32.20;;;1.30;99.90;;;;;;5074583;28;20245;-65
2022/03/02 06:35:00;;;;;;;60.92;32.80;;;1.20;99.90;;;;;;5085766;28;20122;-65
2022/03/02 06:37:26;;;;;;;69.82;35.22;;;1.20;99.90;;;;;;5074736;28;20123;-65
2022/03/02 06:39:54;;;;;;;62.78;34.38;;;1.20;99.90;;;;;;5057667;28;20040;-65
2022/03/02 06:42:43;;;;;;;69.63;36.97;;;1.10;99.90;;;;;;5074330;28;20078;-64
2022/03/02 06:45:24;;;;;;;62.20;33.90;;;1.10;99.90;;;;;;5074300;28;20127;-64
2022/03/02 06:48:00;;;;;;;70.10;36.28;;;1.10;99.90;;;;;;5074540;28;20076;-64
2022/03/02 06:50:27;;;;;;;68.43;35.33;;;1.10;99.90;;;;;;5074026;28;20051;-65
2022/03/02 06:52:54;;;;;;;66.80;35.53;;;1.10;99.90;;;;;;5074999;28;20093;-65
2022/03/02 06:55:21;;;;;;;75.82;40.33;;;1.10;99.90;;;;;;5072816;28;20484;-65
2022/03/02 06:57:59;;;;;;;67.07;36.15;;;1.20;99.90;;;;;;5073883;28;20098;-65
2022/03/02 07:00:25;;;;;;;62.42;35.60;;;1.20;99.90;;;;;;5057731;28;20036;-64
2022/03/02 07:02:55;;;;;;;71.30;37.67;;;1.30;99.90;;;;;;5074382;28;20040;-65
2022/03/02 07:05:23;;;;;;;67.75;35.35;;;1.30;99.90;;;;;;5075098;28;20032;-65
2022/03/02 07:07:49;;;;;;;70.45;37.15;;;1.30;99.90;;;;;;5058456;28;20127;-65
2022/03/02 07:10:15;;;;;;;61.80;35.67;;;1.40;99.90;;;;;;5074714;28;20181;-65
2022/03/02 07:12:41;;;;;;;70.30;37.55;;;1.40;99.90;;;;;;5075265;28;20151;-64
2022/03/02 07:15:08;;;;;;;77.75;38.60;;;1.50;99.90;;;;;;5075006;28;20035;-64
2022/03/02 07:17:35;;;;;;;68.40;37.17;;;1.50;99.90;;;;;;5074730;28;20049;-65
2022/03/02 07:20:06;;;;;;;65.00;35.15;;;1.50;99.90;;;;;;5058002;28;20032;-65
2022/03/02 07:22:35;;;;;;;71.88;37.42;;;1.60;99.90;;;;;;5074866;28;20040;-65
2022/03/02 07:25:29;;;;;;;74.07;37.90;;;1.70;99.90;;;;;;5072285;28;20127;-65
2022/03/02 07:27:58;;;;;;;66.65;37.03;;;1.70;99.90;;;;;;5067286;28;20369;-65
2022/03/02 07:30:57;;;;;;;68.47;37.78;;;1.80;99.90;;;;;;5091243;28;20136;-65
2022/03/02 07:33:25;;;;;;;67.30;35.97;;;1.80;99.90;;;;;;5065300;28;20039;-65
2022/03/02 07:35:58;;;;;;;71.40;36.45;;;1.90;99.90;;;;;;5078330;28;20058;-65
2022/03/02 07:38:25;;;;;;;69.85;37.67;;;2.00;99.90;;;;;;5078016;28;20130;-65
2022/03/02 07:40:52;;;;;;;67.18;37.22;;;2.00;99.90;;;;;;5097369;28;20036;-65
2022/03/02 07:43:19;;;;;;;69.13;35.83;;;2.10;99.90;;;;;;5099123;28;20075;-65
2022/03/02 07:45:46;;;;;;;68.07;37.50;;;2.20;99.90;;;;;;5099200;28;20055;-65
2022/03/02 07:48:11;;;;;;;70.20;36.60;;;2.30;99.90;;;;;;5099100;28;20039;-64
2022/03/02 07:50:39;;;;;;;68.55;36.78;;;2.40;99.90;;;;;;5078622;28;20054;-65
2022/03/02 07:53:05;;;;;;;62.15;35.60;;;2.50;99.90;;;;;;5098883;28;20039;-64
2022/03/02 07:55:33;;;;;;;65.03;36.00;;;2.60;99.90;;;;;;5096241;28;20047;-64
2022/03/02 07:58:03;;;;;;;63.83;36.05;;;2.70;99.90;;;;;;5098693;28;20043;-64
2022/03/02 08:00:29;;;;;;;60.80;34.83;;;2.90;99.90;;;;;;5098478;28;20399;-64
2022/03/02 08:02:58;;;;;;;62.38;35.58;;;3.00;99.90;;;;;;5098707;28;20047;-64
2022/03/02 08:05:25;;;;;;;62.55;35.28;;;3.10;99.90;;;;;;5098612;28;20391;-64
2022/03/02 08:07:51;;;;;;;58.22;33.38;;;3.40;99.90;;;;;;5098673;28;20377;-64
2022/03/02 08:10:18;;;;;;;60.55;34.17;;;3.60;99.90;;;;;;5081572;28;20047;-64
2022/03/02 08:12:45;;;;;;;63.00;35.40;;;3.90;99.90;;;;;;5081921;28;20040;-64
2022/03/02 08:15:11;;;;;;;51.67;31.75;;;4.00;99.90;;;;;;5098317;28;20040;-64
2022/03/02 08:17:37;;;;;;;48.35;30.83;;;4.30;99.90;;;;;;5098527;28;20044;-64
2022/03/02 08:20:05;;;;;;;50.05;29.17;;;4.60;99.90;;;;;;5081058;28;20074;-64
2022/03/02 08:22:31;;;;;;;45.53;29.33;;;5.00;99.90;;;;;;5098099;28;20039;-64
2022/03/02 08:25:03;;;;;;;47.00;27.80;;;5.60;99.90;;;;;;5092276;28;20052;-64
2022/03/02 08:27:30;;;;;;;45.47;26.30;;;6.20;99.90;;;;;;5077880;28;20050;-64
2022/03/02 08:29:57;;;;;;;42.42;25.58;;;6.60;99.90;;;;;;5077654;28;20079;-64
2022/03/02 08:32:24;;;;;;;39.65;25.98;;;6.60;99.90;;;;;;5077555;28;20469;-64
2022/03/02 08:34:51;;;;;;;40.72;25.63;;;6.60;99.90;;;;;;5060806;28;20051;-64
2022/03/02 08:37:18;;;;;;;36.55;23.27;;;6.90;99.90;;;;;;5077578;28;20043;-64
2022/03/02 08:43:43;;;;;;;38.15;24.42;;;7.90;99.90;;;;;;5075548;28;20039;-64
2022/03/02 08:46:09;;;;;;;32.90;20.70;;;8.10;99.90;;;;;;5057503;28;20037;-64
2022/03/02 08:48:35;;;;;;;39.97;25.92;;;8.10;99.90;;;;;;5057410;28;20127;-64
2022/03/02 08:51:03;;;;;;;34.63;23.75;;;8.10;99.90;;;;;;5057014;28;20197;-65
2022/03/02 08:53:31;;;;;;;38.95;26.08;;;8.50;99.90;;;;;;5056983;28;20098;-64
2022/03/02 08:56:03;;;;;;;36.10;24.73;;;8.90;99.90;;;;;;5060627;28;20441;-65
2022/03/02 08:58:29;;;;;;;33.78;23.92;;;9.20;99.90;;;;;;5076991;28;20098;-65
2022/03/02 09:00:59;;;;;;;35.97;24.92;;;9.70;99.90;;;;;;5060357;28;20036;-65
2022/03/02 09:03:25;;;;;;;38.03;24.30;;;10.10;99.90;;;;;;5076910;28;20040;-64
2022/03/02 09:05:52;;;;;;;36.42;24.73;;;10.50;99.90;;;;;;5077181;28;20040;-65
2022/03/02 09:08:19;;;;;;;32.65;19.65;;;10.90;99.90;;;;;;5077143;28;20435;-65
2022/03/02 09:10:45;;;;;;;32.55;23.27;;;11.20;99.90;;;;;;5077063;28;20404;-65
2022/03/02 09:13:12;;;;;;;29.73;21.92;;;11.50;99.90;;;;;;5076808;28;20036;-65
2022/03/02 09:15:39;;;;;;;32.35;22.90;;;11.70;99.90;;;;;;5076874;28;20059;-65
2022/03/02 09:18:05;;;;;;;30.73;21.42;;;11.70;99.90;;;;;;5076740;28;20073;-65
2022/03/02 09:20:31;;;;;;;30.00;22.65;;;11.80;99.90;;;;;;5059718;28;20109;-65
2022/03/02 09:22:59;;;;;;;29.23;22.40;;;11.90;99.90;;;;;;5076427;28;20489;-65
2022/03/02 09:25:29;;;;;;;29.00;20.48;;;12.10;99.90;;;;;;5071619;28;20096;-64
2022/03/02 09:27:56;;;;;;;30.30;23.70;;;12.10;97.60;;;;;;5076908;28;20135;-64
2022/03/02 09:30:22;;;;;;;30.10;22.08;;;12.10;96.90;;;;;;5076745;28;20040;-65
2022/03/02 09:32:53;;;;;;;29.40;21.83;;;12.10;95.30;;;;;;5076449;28;20044;-65
2022/03/02 09:35:20;;;;;;;30.25;22.60;;;12.40;98.30;;;;;;5076435;28;20223;-64
2022/03/02 09:37:53;;;;;;;32.97;23.48;;;12.80;96.10;;;;;;5076562;28;20040;-64
2022/03/02 09:40:30;;;;;;;29.40;21.63;;;12.90;93.20;;;;;;5076128;28;20477;-64
2022/03/02 09:43:00;;;;;;;30.20;22.05;;;13.00;90.40;;;;;;5057114;28;20372;-64
2022/03/02 09:45:29;;;;;;;27.48;21.38;;;12.90;90.60;;;;;;5076188;28;20036;-64
2022/03/02 09:47:58;;;;;;;28.00;21.88;;;13.10;91.50;;;;;;5076305;28;20157;-64
2022/03/02 09:50:31;;;;;;;29.80;21.70;;;13.30;90.80;;;;;;5076093;28;20098;-64
2022/03/02 09:53:06;;;;;;;29.55;20.77;;;13.50;88.70;;;;;;5059721;28;20588;-64
2022/03/02 09:55:34;;;;;;;30.10;23.00;;;13.70;88.80;;;;;;5074195;28;20040;-64
2022/03/02 09:58:00;;;;;;;29.85;20.88;;;14.00;89.00;;;;;;5059516;28;20101;-65
2022/03/02 10:00:28;;;;;;;28.40;20.08;;;13.90;79.40;;;;;;5075927;28;20040;-64
2022/03/02 10:02:59;;;;;;;28.02;19.92;;;13.80;77.20;;;;;;5076021;28;20488;-64
2022/03/02 10:05:31;;;;;;;29.48;22.80;;;13.60;77.50;;;;;;5076211;28;20376;-64
2022/03/02 10:08:08;;;;;;;29.23;22.95;;;13.60;77.50;;;;;;5075956;28;20048;-65
2022/03/02 10:10:39;;;;;;;27.63;20.80;;;13.90;82.00;;;;;;5075617;28;20040;-65
2022/03/02 10:13:11;;;;;;;26.00;19.30;;;14.50;82.70;;;;;;5075803;28;20051;-65
2022/03/02 10:15:39;;;;;;;25.92;20.40;;;14.80;75.70;;;;;;5075737;28;20104;-65
2022/03/02 10:18:11;;;;;;;24.70;20.42;;;14.70;73.40;;;;;;5059194;28;20046;-64
2022/03/02 10:20:40;;;;;;;26.10;19.98;;;14.90;75.00;;;;;;5075674;28;20079;-65
2022/03/02 10:23:23;;;;;;;26.55;21.17;;;15.30;75.10;;;;;;5075736;28;20395;-65
2022/03/02 10:26:04;;;;;;;25.73;20.23;;;15.80;75.00;;;;;;5073401;28;20044;-65
2022/03/02 10:28:31;;;;;;;30.58;21.55;;;16.40;75.00;;;;;;5075880;28;20046;-65
2022/03/02 10:31:13;;;;;;;26.63;19.23;;;16.60;69.50;;;;;;5075480;28;20074;-65
2022/03/02 10:33:56;;;;;;;24.73;18.42;;;16.70;66.90;;;;;;5059122;28;20341;-65
2022/03/02 10:36:27;;;;;;;26.30;18.70;;;16.60;63.50;;;;;;5058652;28;20067;-65
2022/03/02 10:39:06;;;;;;;25.75;18.90;;;16.50;64.30;;;;;;5058851;28;20036;-65
2022/03/02 10:41:39;;;;;;;23.63;18.27;;;16.50;63.80;;;;;;5075328;28;20047;-65
2022/03/02 10:44:28;;;;;;;25.60;19.45;;;16.50;61.50;;;;;;5072638;28;20044;-65
2022/03/02 10:47:16;;;;;;;22.95;16.95;;;16.50;59.90;;;;;;5075428;28;20039;-65
2022/03/02 10:49:44;;;;;;;22.95;17.63;;;16.50;60.30;;;;;;5075276;28;20040;-65
2022/03/02 10:52:14;;;;;;;24.02;19.52;;;16.50;61.00;;;;;;5075197;28;20036;-65
2022/03/02 10:54:41;;;;;;;26.50;18.83;;;16.60;62.20;;;;;;5072938;28;20511;-65
2022/03/02 10:57:11;;;;;;;24.33;18.23;;;16.80;60.90;;;;;;5058645;28;20048;-65
2022/03/02 10:59:38;;;;;;;25.90;19.25;;;17.10;60.50;;;;;;5075072;28;20131;-65
2022/03/02 11:02:04;;;;;;;24.45;20.17;;;17.50;61.80;;;;;;5083732;28;20126;-65
2022/03/02 11:04:33;;;;;;;24.95;18.40;;;18.00;62.50;;;;;;5095298;28;20517;-65
2022/03/02 11:07:03;;;;;;;24.23;18.73;;;18.10;57.30;;;;;;5095126;28;20118;-64
2022/03/02 11:09:34;;;;;;;24.23;18.52;;;18.00;58.10;;;;;;5095447;28;20402;-65
2022/03/02 11:12:01;;;;;;;21.95;16.58;;;18.20;57.30;;;;;;5095100;28;20175;-65
2022/03/02 11:14:27;;;;;;;28.13;21.05;;;18.20;55.00;;;;;;5094607;28;20045;-64
2022/03/02 11:17:16;;;;;;;20.92;16.95;;;18.10;57.10;;;;;;5095038;28;20613;-64
2022/03/02 11:19:45;;;;;;;21.38;16.35;;;18.10;53.80;;;;;;5094940;28;20051;-64
2022/03/02 11:22:13;;;;;;;21.95;17.98;;;18.10;52.10;;;;;;5094967;28;20043;-64
2022/03/02 11:24:40;;;;;;;22.73;18.05;;;17.60;51.90;;;;;;5075724;28;20388;-64
2022/03/02 11:27:06;;;;;;;22.08;17.20;;;17.30;52.30;;;;;;5078003;28;20590;-64
2022/03/02 11:29:32;;;;;;;21.45;16.67;;;17.40;53.60;;;;;;5094974;28;20046;-64
2022/03/02 11:32:09;;;;;;;23.38;16.77;;;17.50;53.20;;;;;;5084544;28;20048;-64
2022/03/02 11:34:43;;;;;;;23.58;17.77;;;17.80;53.70;;;;;;5074582;28;20079;-64
2022/03/02 11:37:09;;;;;;;24.42;18.88;;;17.80;51.70;;;;;;5074453;28;20051;-64
2022/03/02 11:39:43;;;;;;;19.55;16.38;;;17.80;53.10;;;;;;5088847;28;20056;-65
2022/03/02 11:42:09;;;;;;;19.00;14.15;;;17.50;50.20;;;;;;5074589;28;20042;-64
2022/03/02 11:44:43;;;;;;;20.67;15.60;;;17.10;48.70;;;;;;5074794;28;20035;-64
2022/03/02 11:47:15;;;;;;;23.13;16.02;;;16.80;49.60;;;;;;5074518;28;20036;-64
2022/03/02 11:49:49;;;;;;;22.50;16.45;;;16.60;50.40;;;;;;5074663;28;20040;-64
2022/03/02 11:52:28;;;;;;;19.83;14.82;;;16.20;50.90;;;;;;5074625;28;20043;-64
2022/03/02 11:54:59;;;;;;;21.13;15.70;;;15.90;50.90;;;;;;5052606;28;20044;-64
2022/03/02 11:57:29;;;;;;;19.67;15.30;;;15.70;49.90;;;;;;5074478;28;20502;-64
2022/03/02 12:00:09;;;;;;;19.13;15.43;;;16.20;52.10;;;;;;5057887;28;20040;-64
2022/03/02 12:02:47;;;;;;;19.10;13.30;;;16.70;49.50;;;;;;5057639;28;20070;-66
2022/03/02 12:05:15;;;;;;;17.88;13.73;;;16.90;48.10;;;;;;5074416;28;20040;-64
2022/03/02 12:07:52;;;;;;;17.92;14.25;;;17.10;48.70;;;;;;5057790;28;20096;-64
2022/03/02 12:10:26;;;;;;;19.45;14.65;;;16.70;46.30;;;;;;5074557;28;20615;-64
2022/03/02 12:12:53;;;;;;;20.88;13.80;;;16.70;49.70;;;;;;5074286;28;20488;-65
2022/03/02 12:15:22;;;;;;;18.92;14.13;;;16.90;49.40;;;;;;5074612;28;20445;-65
2022/03/02 12:17:49;;;;;;;19.52;14.88;;;16.80;46.40;;;;;;5074312;28;20435;-65
2022/03/02 12:20:17;;;;;;;21.15;15.18;;;16.80;48.50;;;;;;5074286;28;20127;-65
2022/03/02 12:22:48;;;;;;;18.02;13.68;;;17.00;50.30;;;;;;5074422;28;20036;-65
2022/03/02 12:25:18;;;;;;;17.10;13.00;;;17.00;46.90;;;;;;5051901;28;20048;-64
2022/03/02 12:28:00;;;;;;;18.13;12.23;;;16.90;45.60;;;;;;5056158;28;20068;-65
2022/03/02 12:30:32;;;;;;;19.60;13.98;;;16.20;46.40;;;;;;5057862;28;20318;-64
2022/03/02 12:32:58;;;;;;;19.85;13.80;;;16.00;47.30;;;;;;5057685;28;20123;-64
2022/03/02 12:35:27;;;;;;;17.63;13.52;;;16.10;48.20;;;;;;5057785;28;20083;-64
2022/03/02 12:37:59;;;;;;;20.02;12.57;;;16.30;47.70;;;;;;5057612;28;20046;-64
2022/03/02 12:40:29;;;;;;;19.92;15.38;;;16.20;45.70;;;;;;5057695;28;20043;-64
2022/03/02 12:42:55;;;;;;;;;;;16.10;48.10;;;;;;5058245;28;20060;-64
2022/03/02 12:45:22;;;;;;;21.35;16.55;;;16.20;46.30;;;;;;5057849;28;20303;-64